createdAt,value
2023-05-04T00:01:11.609Z,63.70
2023-05-04T00:03:39.511Z,63.60
2023-05-04T00:06:07.197Z,63.60
2023-05-04T00:08:34.665Z,63.70
2023-05-04T00:11:02.389Z,63.60
2023-05-04T00:13:29.840Z,63.70
2023-05-04T00:15:57.468Z,63.70
2023-05-04T00:18:25.033Z,63.40
2023-05-04T00:20:52.556Z,64.50
2023-05-04T00:23:20.193Z,63.50
2023-05-04T00:25:47.864Z,63.50
2023-05-04T00:28:15.364Z,63.60
2023-05-04T00:30:42.860Z,63.50
2023-05-04T00:33:10.984Z,63.30
2023-05-04T00:35:40.152Z,63.60
2023-05-04T00:38:07.675Z,63.10
2023-05-04T00:40:35.601Z,63.30
2023-05-04T00:43:03.330Z,63.40
2023-05-04T00:45:31.222Z,63.40
2023-05-04T00:47:59.938Z,63.40
2023-05-04T00:50:29.058Z,63.30
2023-05-04T00:52:59.201Z,63.40
2023-05-04T00:55:27.458Z,63.50
2023-05-04T00:57:58.084Z,63.30
2023-05-04T01:00:26.158Z,63.20
2023-05-04T01:02:53.723Z,63.10
2023-05-04T01:05:21.533Z,63.10
2023-05-04T01:07:57.018Z,63.10
2023-05-04T01:10:47.556Z,63.20
2023-05-04T01:13:16.825Z,63.10
2023-05-04T01:15:45.239Z,63.10
2023-05-04T01:18:13.493Z,63.20
2023-05-04T01:20:41.076Z,63.30
2023-05-04T01:23:09.512Z,63.10
2023-05-04T01:26:03.742Z,63.10
2023-05-04T01:28:42.676Z,63.20
2023-05-04T01:31:17.337Z,63.40
2023-05-04T01:33:46.180Z,63.10
2023-05-04T01:36:14.145Z,63.20
2023-05-04T01:38:42.716Z,63.20
2023-05-04T01:41:10.234Z,62.70
2023-05-04T01:43:37.872Z,62.80
2023-05-04T01:46:05.485Z,63.00
2023-05-04T01:48:32.971Z,62.80
2023-05-04T01:51:00.589Z,63.10
2023-05-04T01:53:28.152Z,63.00
2023-05-04T01:55:55.655Z,63.00
2023-05-04T01:58:23.269Z,62.80
2023-05-04T02:00:53.518Z,62.80
2023-05-04T02:03:21.103Z,62.90
2023-05-04T02:05:48.732Z,62.70
2023-05-04T02:08:16.205Z,62.80
2023-05-04T02:10:43.693Z,62.80
2023-05-04T02:13:11.371Z,63.00
2023-05-04T02:15:38.942Z,62.60
2023-05-04T02:18:06.523Z,62.80
2023-05-04T02:20:34.259Z,62.70
2023-05-04T02:23:01.973Z,62.90
2023-05-04T02:25:29.575Z,62.70
2023-05-04T02:27:57.104Z,62.70
2023-05-04T02:30:24.650Z,62.80
2023-05-04T02:32:52.177Z,62.80
2023-05-04T02:35:19.822Z,62.70
2023-05-04T02:37:47.344Z,62.80
2023-05-04T02:40:14.964Z,62.60
2023-05-04T02:42:42.686Z,62.80
2023-05-04T02:45:10.680Z,62.90
2023-05-04T02:47:38.290Z,63.00
2023-05-04T02:50:06.989Z,63.00
2023-05-04T02:52:34.925Z,63.00
2023-05-04T02:55:05.471Z,63.10
2023-05-04T02:57:33.072Z,63.10
2023-05-04T03:00:00.545Z,63.30
2023-05-04T03:02:28.134Z,63.30
2023-05-04T03:04:56.001Z,63.50
2023-05-04T03:07:23.535Z,63.40
2023-05-04T03:09:51.039Z,63.50
2023-05-04T03:12:18.606Z,63.50
2023-05-04T03:14:46.487Z,63.60
2023-05-04T03:17:17.278Z,63.60
2023-05-04T03:19:44.790Z,63.70
2023-05-04T03:22:12.271Z,63.70
2023-05-04T03:24:40.207Z,63.80
2023-05-04T03:27:07.754Z,63.90
2023-05-04T03:29:35.213Z,64.00
2023-05-04T03:32:02.851Z,64.10
2023-05-04T03:34:30.530Z,64.10
2023-05-04T03:36:58.600Z,64.10
2023-05-04T03:39:26.200Z,64.20
2023-05-04T03:41:53.764Z,64.20
2023-05-04T03:44:21.496Z,64.30
2023-05-04T03:46:49.014Z,64.40
2023-05-04T03:49:16.526Z,64.50
2023-05-04T03:51:44.827Z,64.50
2023-05-04T03:54:12.846Z,64.60
2023-05-04T03:56:40.370Z,64.60
2023-05-04T03:59:07.855Z,64.50
2023-05-04T04:01:35.806Z,64.60
2023-05-04T04:04:03.709Z,64.60
2023-05-04T04:06:32.282Z,64.70
2023-05-04T04:08:59.923Z,64.80
2023-05-04T04:11:27.578Z,65.00
2023-05-04T04:13:55.103Z,65.00
2023-05-04T04:16:22.931Z,65.00
2023-05-04T04:18:50.754Z,65.00
2023-05-04T04:21:18.338Z,65.00
2023-05-04T04:23:45.911Z,65.00
2023-05-04T04:26:13.585Z,65.10
2023-05-04T04:28:41.080Z,65.20
2023-05-04T04:31:09.577Z,65.30
2023-05-04T04:33:37.171Z,65.30
2023-05-04T04:36:04.702Z,65.30
2023-05-04T04:38:32.184Z,65.30
2023-05-04T04:40:59.706Z,65.50
2023-05-04T04:43:27.208Z,65.60
2023-05-04T04:45:54.754Z,65.70
2023-05-04T04:48:23.026Z,65.70
2023-05-04T04:50:50.744Z,65.90
2023-05-04T04:53:18.710Z,66.00
2023-05-04T04:55:46.592Z,65.90
2023-05-04T04:58:14.169Z,66.00
2023-05-04T05:00:41.715Z,66.10
2023-05-04T05:03:09.355Z,65.90
2023-05-04T05:05:37.218Z,66.00
2023-05-04T05:08:04.882Z,66.30
2023-05-04T05:10:32.349Z,66.40
2023-05-04T05:13:02.943Z,66.40
2023-05-04T05:15:30.698Z,66.40
2023-05-04T05:17:58.175Z,66.30
2023-05-04T05:20:25.862Z,66.50
2023-05-04T05:22:53.368Z,66.70
2023-05-04T05:25:20.944Z,66.80
2023-05-04T05:27:48.505Z,67.00
2023-05-04T05:30:16.343Z,67.00
2023-05-04T05:32:43.919Z,66.90
2023-05-04T05:35:12.793Z,66.90
2023-05-04T05:37:40.457Z,67.00
2023-05-04T05:40:08.471Z,67.00
2023-05-04T05:42:36.096Z,67.20
2023-05-04T05:45:04.855Z,67.20
2023-05-04T05:47:33.113Z,67.20
2023-05-04T05:50:01.161Z,67.40
2023-05-04T05:52:34.020Z,67.40
2023-05-04T05:55:02.745Z,67.50
2023-05-04T05:57:31.074Z,67.40
2023-05-04T05:59:58.554Z,67.60
2023-05-04T06:02:26.558Z,67.80
2023-05-04T06:04:54.288Z,68.10
2023-05-04T06:07:22.247Z,68.30
2023-05-04T06:09:49.992Z,68.60
2023-05-04T06:12:17.619Z,68.60
2023-05-04T06:14:45.273Z,68.60
2023-05-04T06:17:12.734Z,69.00
2023-05-04T06:19:40.341Z,69.10
2023-05-04T06:22:07.944Z,69.40
2023-05-04T06:24:35.416Z,69.20
2023-05-04T06:27:10.069Z,69.10
2023-05-04T06:29:41.604Z,69.10
2023-05-04T06:32:10.573Z,69.30
2023-05-04T06:34:39.117Z,69.70
2023-05-04T06:37:06.732Z,70.60
2023-05-04T06:39:34.219Z,72.10
2023-05-04T06:42:01.890Z,71.50
2023-05-04T06:44:29.433Z,72.30
2023-05-04T06:46:57.003Z,72.40
2023-05-04T06:49:24.523Z,72.50
2023-05-04T06:51:52.045Z,73.80
2023-05-04T06:54:19.523Z,72.50
2023-05-04T06:56:47.218Z,72.30
2023-05-04T06:59:15.043Z,72.10
2023-05-04T07:01:42.749Z,72.50
2023-05-04T07:04:10.387Z,73.10
2023-05-04T07:06:39.640Z,73.10
2023-05-04T07:09:08.610Z,72.80
2023-05-04T07:11:36.460Z,73.80
2023-05-04T07:14:04.004Z,73.10
2023-05-04T07:16:33.230Z,72.90
2023-05-04T07:19:00.689Z,74.40
2023-05-04T07:21:29.467Z,74.20
2023-05-04T07:23:57.576Z,73.50
2023-05-04T07:26:25.203Z,73.40
2023-05-04T07:28:52.833Z,73.50
2023-05-04T07:31:20.431Z,73.10
2023-05-04T07:33:48.556Z,73.40
2023-05-04T07:36:16.057Z,74.00
2023-05-04T07:38:43.668Z,73.40
2023-05-04T07:41:11.141Z,73.30
2023-05-04T07:43:38.723Z,73.10
2023-05-04T07:46:06.509Z,73.10
2023-05-04T07:48:35.039Z,72.80
2023-05-04T07:51:02.556Z,73.20
2023-05-04T07:53:30.201Z,72.90
2023-05-04T07:55:57.873Z,73.20
2023-05-04T07:58:25.332Z,73.20
2023-05-04T08:00:52.910Z,73.30
2023-05-04T08:03:20.448Z,73.40
2023-05-04T08:05:48.094Z,73.60
2023-05-04T08:08:15.629Z,73.20
2023-05-04T08:10:43.121Z,73.50
2023-05-04T08:13:10.760Z,73.30
2023-05-04T08:15:38.414Z,73.70
2023-05-04T08:18:06.555Z,73.60
2023-05-04T08:20:34.107Z,73.40
2023-05-04T08:23:04.140Z,73.30
2023-05-04T08:25:31.773Z,73.60
2023-05-04T08:27:59.256Z,73.50
2023-05-04T08:30:27.479Z,73.70
2023-05-04T08:32:55.755Z,73.90
2023-05-04T08:35:26.306Z,74.00
2023-05-04T08:37:54.005Z,74.10
2023-05-04T08:40:24.369Z,74.50
2023-05-04T08:42:52.768Z,73.90
2023-05-04T08:45:20.604Z,73.70
2023-05-04T08:47:48.474Z,73.90
2023-05-04T08:50:16.130Z,73.80
2023-05-04T08:52:46.925Z,73.80
2023-05-04T08:55:17.330Z,73.70
2023-05-04T08:57:45.239Z,73.60
2023-05-04T09:00:16.773Z,73.90
2023-05-04T09:02:46.314Z,74.00
2023-05-04T09:05:14.013Z,74.10
2023-05-04T09:07:41.534Z,74.10
2023-05-04T09:10:12.196Z,74.20
2023-05-04T09:12:39.982Z,74.10
2023-05-04T09:15:21.063Z,74.30
2023-05-04T09:18:05.626Z,74.30
2023-05-04T09:20:45.467Z,74.30
2023-05-04T09:23:14.457Z,74.20
2023-05-04T09:25:49.065Z,74.10
2023-05-04T09:28:17.951Z,74.30
2023-05-04T09:30:46.419Z,74.20
2023-05-04T09:33:16.969Z,74.20
2023-05-04T09:35:47.471Z,74.30
2023-05-04T09:38:28.354Z,74.40
2023-05-04T09:40:56.414Z,74.30
2023-05-04T09:43:27.053Z,74.30
2023-05-04T09:45:54.687Z,74.40
2023-05-04T09:48:29.404Z,74.50
2023-05-04T09:50:58.664Z,73.70
2023-05-04T09:53:28.326Z,73.50
2023-05-04T09:56:08.361Z,73.60
2023-05-04T09:58:37.093Z,73.70
2023-05-04T10:01:05.432Z,73.30
2023-05-04T10:03:33.750Z,73.10
2023-05-04T10:06:05.882Z,73.30
2023-05-04T10:08:33.776Z,73.50
2023-05-04T10:11:02.148Z,73.50
2023-05-04T10:13:29.738Z,73.40
2023-05-04T10:16:30.949Z,73.30
2023-05-04T10:19:11.632Z,73.40
2023-05-04T10:21:48.761Z,73.40
2023-05-04T10:24:26.963Z,73.50
2023-05-04T10:27:19.029Z,73.40
2023-05-04T10:29:51.890Z,73.50
2023-05-04T10:32:23.531Z,73.40
2023-05-04T10:34:52.221Z,73.40
2023-05-04T10:37:22.007Z,73.50
2023-05-04T10:39:54.156Z,73.40
2023-05-04T10:42:22.747Z,73.70
2023-05-04T10:44:57.531Z,73.60
2023-05-04T10:47:35.903Z,73.50
2023-05-04T10:50:07.702Z,73.40
2023-05-04T10:52:48.630Z,73.30
2023-05-04T10:55:17.758Z,74.20
2023-05-04T10:57:52.074Z,73.70
2023-05-04T11:00:20.246Z,73.30
2023-05-04T11:02:49.936Z,73.80
2023-05-04T11:05:20.622Z,73.20
2023-05-04T11:07:53.514Z,73.10
2023-05-04T11:10:26.133Z,73.10
2023-05-04T11:13:02.739Z,73.00
2023-05-04T11:15:33.106Z,73.10
2023-05-04T11:18:00.983Z,73.00
2023-05-04T11:20:28.556Z,73.00
2023-05-04T11:22:56.433Z,72.90
2023-05-04T11:25:31.162Z,72.80
2023-05-04T11:27:59.109Z,72.80
2023-05-04T11:30:36.581Z,72.80
2023-05-04T11:33:12.002Z,72.90
2023-05-04T11:35:40.630Z,73.00
2023-05-04T11:38:08.511Z,73.10
2023-05-04T11:40:37.815Z,72.80
2023-05-04T11:43:05.636Z,72.80
2023-05-04T11:45:36.758Z,72.80
2023-05-04T11:48:04.875Z,72.80
2023-05-04T11:50:32.805Z,72.90
2023-05-04T11:53:12.415Z,73.00
2023-05-04T11:55:40.637Z,72.90
2023-05-04T11:58:10.510Z,72.80
2023-05-04T12:00:46.621Z,73.10
2023-05-04T12:03:15.412Z,72.80
2023-05-04T12:05:54.251Z,72.80
2023-05-04T12:08:34.376Z,72.70
2023-05-04T12:11:22.021Z,72.80
2023-05-04T12:14:01.796Z,72.80
2023-05-04T12:16:29.486Z,72.80
2023-05-04T12:19:05.325Z,72.80
2023-05-04T12:21:33.984Z,72.70
2023-05-04T12:24:02.301Z,72.60
2023-05-04T12:26:30.602Z,72.60
2023-05-04T12:28:58.131Z,72.60
2023-05-04T12:31:25.930Z,72.50
2023-05-04T12:33:53.548Z,72.50
2023-05-04T12:36:21.779Z,73.10
2023-05-04T12:38:49.295Z,72.40
2023-05-04T12:41:16.793Z,72.30
2023-05-04T12:43:44.349Z,72.40
2023-05-04T12:46:11.929Z,72.20
2023-05-04T12:48:39.679Z,72.10
2023-05-04T12:51:07.320Z,72.20
2023-05-04T12:53:34.909Z,72.20
2023-05-04T12:56:03.880Z,72.10
2023-05-04T12:58:31.503Z,72.00
2023-05-04T13:01:00.002Z,72.00
2023-05-04T13:03:27.662Z,72.00
2023-05-04T13:05:55.275Z,72.00
2023-05-04T13:08:22.787Z,72.00
2023-05-04T13:10:53.051Z,72.10
2023-05-04T13:13:23.272Z,72.00
2023-05-04T13:15:54.475Z,72.00
2023-05-04T13:18:27.513Z,72.10
2023-05-04T13:20:56.395Z,72.10
2023-05-04T13:23:27.776Z,72.00
2023-05-04T13:25:55.311Z,71.90
2023-05-04T13:28:23.280Z,71.70
2023-05-04T13:30:50.842Z,71.70
2023-05-04T13:33:28.705Z,71.60
2023-05-04T13:35:58.623Z,71.60
2023-05-04T13:38:26.540Z,71.40
2023-05-04T13:40:57.328Z,71.10
2023-05-04T13:43:25.432Z,71.20
2023-05-04T13:45:53.092Z,71.20
2023-05-04T13:48:20.713Z,71.20
2023-05-04T13:50:48.242Z,71.30
2023-05-04T13:53:17.505Z,71.00
2023-05-04T13:55:45.131Z,71.20
2023-05-04T13:58:12.638Z,71.10
2023-05-04T14:00:40.316Z,71.00
2023-05-04T14:03:07.975Z,71.10
2023-05-04T14:05:36.054Z,71.80
2023-05-04T14:08:03.752Z,71.10
2023-05-04T14:10:31.419Z,70.90
2023-05-04T14:12:59.384Z,71.10
2023-05-04T14:15:27.815Z,71.00
2023-05-04T14:17:58.446Z,71.00
2023-05-04T14:20:26.257Z,70.90
2023-05-04T14:22:53.813Z,70.90
2023-05-04T14:25:22.420Z,71.00
2023-05-04T14:27:49.990Z,71.10
2023-05-04T14:30:17.651Z,71.00
2023-05-04T14:32:45.258Z,70.90
2023-05-04T14:35:13.050Z,70.90
2023-05-04T14:37:40.923Z,70.70
2023-05-04T14:40:11.003Z,70.90
2023-05-04T14:42:38.881Z,70.80
2023-05-04T14:45:08.499Z,71.00
2023-05-04T14:47:36.336Z,71.00
2023-05-04T14:50:04.477Z,70.90
2023-05-04T14:52:32.269Z,70.90
2023-05-04T14:54:59.890Z,70.80
2023-05-04T14:57:27.782Z,70.60
2023-05-04T14:59:55.282Z,70.60
2023-05-04T15:02:22.894Z,70.50
2023-05-04T15:04:50.535Z,70.10
2023-05-04T15:07:21.050Z,70.50
2023-05-04T15:09:48.546Z,70.40
2023-05-04T15:12:16.766Z,70.00
2023-05-04T15:14:44.606Z,69.80
2023-05-04T15:17:12.124Z,69.70
2023-05-04T15:19:40.257Z,69.80
2023-05-04T15:22:07.971Z,69.60
2023-05-04T15:24:35.725Z,69.70
2023-05-04T15:27:04.001Z,69.70
2023-05-04T15:29:32.002Z,69.80
2023-05-04T15:31:59.566Z,70.00
2023-05-04T15:34:27.266Z,69.60
2023-05-04T15:36:55.652Z,69.40
2023-05-04T15:39:23.171Z,69.80
2023-05-04T15:41:50.702Z,69.70
2023-05-04T15:44:21.203Z,69.70
2023-05-04T15:46:48.843Z,69.60
2023-05-04T15:49:16.354Z,69.60
2023-05-04T15:51:43.923Z,69.60
2023-05-04T15:54:11.422Z,69.40
2023-05-04T15:56:42.345Z,69.90
2023-05-04T15:59:09.895Z,69.40
2023-05-04T16:01:40.175Z,69.60
2023-05-04T16:04:07.758Z,69.70
2023-05-04T16:06:35.275Z,69.80
2023-05-04T16:09:02.796Z,69.50
2023-05-04T16:11:30.899Z,69.40
2023-05-04T16:13:58.424Z,69.10
2023-05-04T16:16:26.293Z,68.90
2023-05-04T16:18:54.203Z,68.50
2023-05-04T16:21:21.790Z,68.10
2023-05-04T16:23:49.355Z,65.60
2023-05-04T16:26:17.022Z,66.60
2023-05-04T16:28:45.584Z,67.30
2023-05-04T16:31:13.353Z,67.30
2023-05-04T16:33:47.306Z,68.00
2023-05-04T16:36:15.219Z,67.50
2023-05-04T16:38:42.731Z,68.00
2023-05-04T16:41:10.261Z,67.90
2023-05-04T16:43:37.712Z,68.00
2023-05-04T16:46:05.383Z,67.90
2023-05-04T16:48:33.149Z,68.40
2023-05-04T16:51:06.061Z,68.30
2023-05-04T16:53:33.624Z,68.50
2023-05-04T16:56:01.226Z,68.30
2023-05-04T16:58:29.324Z,68.40
2023-05-04T17:00:58.502Z,68.30
2023-05-04T17:03:26.039Z,68.70
2023-05-04T17:05:53.974Z,68.90
2023-05-04T17:08:21.462Z,68.30
2023-05-04T17:10:48.999Z,68.20
2023-05-04T17:13:16.809Z,67.30
2023-05-04T17:15:44.477Z,66.80
2023-05-04T17:18:12.034Z,67.20
2023-05-04T17:20:39.622Z,67.00
2023-05-04T17:23:07.464Z,67.60
2023-05-04T17:25:35.098Z,67.70
2023-05-04T17:28:02.647Z,67.50
2023-05-04T17:30:30.207Z,68.00
2023-05-04T17:32:57.950Z,67.70
2023-05-04T17:35:26.745Z,67.00
2023-05-04T17:37:58.558Z,67.00
2023-05-04T17:40:28.158Z,67.40
2023-05-04T17:42:56.487Z,67.50
2023-05-04T17:45:24.206Z,67.60
2023-05-04T17:47:52.444Z,67.20
2023-05-04T17:50:21.371Z,67.20
2023-05-04T17:52:58.183Z,67.50
2023-05-04T17:55:26.170Z,67.30
2023-05-04T17:57:55.027Z,67.40
2023-05-04T18:00:22.780Z,67.60
2023-05-04T18:02:50.792Z,67.00
2023-05-04T18:05:18.514Z,67.50
2023-05-04T18:07:46.191Z,65.90
2023-05-04T18:10:13.772Z,63.70
2023-05-04T18:12:41.391Z,65.40
2023-05-04T18:15:10.016Z,66.50
2023-05-04T18:17:40.541Z,65.50
2023-05-04T18:20:09.255Z,66.60
2023-05-04T18:22:37.217Z,66.70
2023-05-04T18:25:05.152Z,66.50
2023-05-04T18:27:33.790Z,66.00
2023-05-04T18:30:02.518Z,66.40
2023-05-04T18:32:30.453Z,66.80
2023-05-04T18:34:58.254Z,66.50
2023-05-04T18:37:26.252Z,67.30
2023-05-04T18:39:53.820Z,66.30
2023-05-04T18:42:21.356Z,66.70
2023-05-04T18:44:48.894Z,66.80
2023-05-04T18:47:16.492Z,67.50
2023-05-04T18:49:47.101Z,67.10
2023-05-04T18:52:14.636Z,66.80
2023-05-04T18:54:42.175Z,66.60
2023-05-04T18:57:13.309Z,67.20
2023-05-04T18:59:41.480Z,66.90
2023-05-04T19:02:09.753Z,67.00
2023-05-04T19:04:37.395Z,67.50
2023-05-04T19:07:04.964Z,67.50
2023-05-04T19:09:33.095Z,67.40
2023-05-04T19:12:00.785Z,67.70
2023-05-04T19:14:30.579Z,67.90
2023-05-04T19:16:58.478Z,67.70
2023-05-04T19:19:26.606Z,68.00
2023-05-04T19:21:54.232Z,68.10
2023-05-04T19:24:21.797Z,68.10
2023-05-04T19:26:49.444Z,67.60
2023-05-04T19:29:16.961Z,68.00
2023-05-04T19:31:44.608Z,68.00
2023-05-04T19:34:12.596Z,68.20
2023-05-04T19:36:40.232Z,68.30
2023-05-04T19:39:07.752Z,68.00
2023-05-04T19:41:36.677Z,67.90
2023-05-04T19:44:08.230Z,68.10
2023-05-04T19:46:36.254Z,68.10
2023-05-04T19:49:03.840Z,68.00
2023-05-04T19:51:31.728Z,67.90
2023-05-04T19:53:59.352Z,68.30
2023-05-04T19:56:26.987Z,68.10
2023-05-04T19:58:54.532Z,68.20
2023-05-04T20:01:23.075Z,68.10
2023-05-04T20:03:50.696Z,68.20
2023-05-04T20:06:18.211Z,67.70
2023-05-04T20:08:45.721Z,67.60
2023-05-04T20:11:14.117Z,67.50
2023-05-04T20:13:42.861Z,67.50
2023-05-04T20:16:10.463Z,67.70
2023-05-04T20:18:37.967Z,67.70
2023-05-04T20:21:05.710Z,67.10
2023-05-04T20:23:33.431Z,67.00
2023-05-04T20:26:01.236Z,67.00
2023-05-04T20:28:28.872Z,67.10
2023-05-04T20:30:56.443Z,67.10
2023-05-04T20:33:23.998Z,66.60
2023-05-04T20:35:51.622Z,66.80
2023-05-04T20:38:19.193Z,66.60
2023-05-04T20:40:47.158Z,66.70
2023-05-04T20:43:14.903Z,66.10
2023-05-04T20:45:42.487Z,66.20
2023-05-04T20:48:10.066Z,66.10
2023-05-04T20:50:39.375Z,65.90
2023-05-04T20:53:07.098Z,66.30
2023-05-04T20:55:34.686Z,65.90
2023-05-04T20:58:02.232Z,65.60
2023-05-04T21:00:30.611Z,66.20
2023-05-04T21:02:59.418Z,65.70
2023-05-04T21:05:26.994Z,66.00
2023-05-04T21:07:54.728Z,65.90
2023-05-04T21:10:22.375Z,65.80
2023-05-04T21:12:49.903Z,66.00
2023-05-04T21:15:17.584Z,65.80
2023-05-04T21:17:45.134Z,66.10
2023-05-04T21:20:13.192Z,65.40
2023-05-04T21:22:40.800Z,65.80
2023-05-04T21:25:08.606Z,65.70
2023-05-04T21:27:36.420Z,66.00
2023-05-04T21:30:05.222Z,65.80
2023-05-04T21:32:33.006Z,66.10
2023-05-04T21:35:00.671Z,66.10
2023-05-04T21:37:28.129Z,65.90
2023-05-04T21:39:56.041Z,65.60
2023-05-04T21:42:24.139Z,66.20
2023-05-04T21:44:55.385Z,66.30
2023-05-04T21:47:26.759Z,66.10
2023-05-04T21:49:55.376Z,66.40
2023-05-04T21:52:23.368Z,66.30
2023-05-04T21:54:50.960Z,66.50
2023-05-04T21:57:18.525Z,66.50
2023-05-04T21:59:49.843Z,66.30
2023-05-04T22:02:17.527Z,66.70
2023-05-04T22:04:45.726Z,66.80
2023-05-04T22:07:13.274Z,66.50
2023-05-04T22:09:40.801Z,66.70
2023-05-04T22:12:08.488Z,66.80
2023-05-04T22:14:36.032Z,66.90
2023-05-04T22:17:03.722Z,67.00
2023-05-04T22:19:31.333Z,67.00
2023-05-04T22:21:58.984Z,67.20
2023-05-04T22:24:27.078Z,67.30
2023-05-04T22:26:54.651Z,67.20
2023-05-04T22:29:22.134Z,67.50
2023-05-04T22:31:49.707Z,67.20
2023-05-04T22:34:17.191Z,67.40
2023-05-04T22:36:44.673Z,67.50
2023-05-04T22:39:12.382Z,67.50
2023-05-04T22:41:42.884Z,67.60
2023-05-04T22:44:13.282Z,67.50
2023-05-04T22:46:40.858Z,67.30
2023-05-04T22:49:08.503Z,67.60
2023-05-04T22:51:36.338Z,67.60
2023-05-04T22:54:04.125Z,67.40
2023-05-04T22:56:32.934Z,67.50
2023-05-04T22:59:00.561Z,67.70
2023-05-04T23:01:30.322Z,67.60
2023-05-04T23:03:57.972Z,67.60
2023-05-04T23:06:25.562Z,67.60
2023-05-04T23:08:53.077Z,67.80
2023-05-04T23:11:24.210Z,67.80
2023-05-04T23:13:51.760Z,67.70
2023-05-04T23:16:19.468Z,67.80
2023-05-04T23:18:48.973Z,67.90
2023-05-04T23:21:16.523Z,67.80
2023-05-04T23:23:43.974Z,67.60
2023-05-04T23:26:11.685Z,68.20
2023-05-04T23:28:39.233Z,68.10
2023-05-04T23:31:06.793Z,68.10
2023-05-04T23:33:34.563Z,68.30
2023-05-04T23:36:02.033Z,68.10
2023-05-04T23:38:29.860Z,68.20
2023-05-04T23:40:57.691Z,68.40
2023-05-04T23:43:25.289Z,68.40
2023-05-04T23:46:03.191Z,68.70
2023-05-04T23:48:32.163Z,68.70
2023-05-04T23:51:04.044Z,68.70
2023-05-04T23:53:32.276Z,68.50
2023-05-04T23:56:03.598Z,68.70
2023-05-04T23:58:33.116Z,69.10
